Latexo, TX (75849)

9:00 PM CDT on August 21, 2014 (GMT -0500)
Crockett | Change Station
CLOSE
Current Station
Airport
Location: Crockett,
Elevation: 348 ft
Nearby Weather Stations

Elev 348 ft 31.31 °N, 95.40 °W | Updated 25 minutes ago

Clear
Clear
90 °F
Feels Like 102 °F
N
10
Wind Variable Wind from SSE

Today
High -- | Low -- °F
--% Chance of Precip.
Yesterday
High -- | Low -- °F
Precip. -- in
6:51 AM 7:58 PM
Waning Crescent, 11% visible
Pressure 30.05 in
Visibility 9.0 miles
Clouds Clear
Heat Index 102 °F
Dew Point 77 °F
Humidity 66%
Rainfall 0.00 in
Snow Depth Not available.
UV 0 out of 12
Pollen 6.00 out of 12
Air Quality Not available.
Flu Activity Not available.
METAR KDKR 220135Z AUTO 16009KT 9SM CLR 32/25 A3005 RMK AO2

More Conditions Fewer Conditions

Pressure 30.05 in
Visibility 9.0 miles
Clouds Clear
Heat Index 102 °F
Dew Point 77 °F
Humidity 66%
Rainfall 0.00 in
Snow Depth Not available.
UV 0 out of 12
Pollen 6.00 out of 12
Air Quality Not available.
Flu Activity Not available.
METAR KDKR 220135Z AUTO 16009KT 9SM CLR 32/25 A3005 RMK AO2

More Conditions Fewer Conditions

10-Day Weather Forecast

Almanac

Astronomy

Aug. 21, 2014 Rise Set
Actual Time 6:51 AM CDT 7:58 PM CDT
Civil Twilight 6:25 AM CDT 8:23 PM CDT
Nautical Twilight 5:55 AM CDT 8:53 PM CDT
Astronomical Twilight 5:24 AM CDT 9:24 PM CDT
Moon 3:28 AM CDT (8/21) 5:22 PM CDT (8/21)
Length of Visible Light 13h 57m
Length of Day
13h 07m
Tomorrow will be 1m 46s shorter.
Waning Crescent, 11% of the Moon is Illuminated
Today
Waning Crescent
Aug 25
New
Sep 2
First Quarter
Sep 8
Full
Sep 15
Last Quarter

Today's Extremes

State Highs State Lows

Community

WunderPhotos

Upload Photos

1,746,107 photos uploaded!

WunderBlogs® & News

Nearby

Snow Depth

Station Depth Elevation
No new snow has been reported.

Earthquake Activity

City Distance Mag. Time & Date
No recent earthquake activity has been reported nearby.
Minimum magnitude displayed is 2.5.

Coastal Water Temperatures

Place Temperature
No Stations Reporting

Nearby Weather Stations